CheckWX is a tool to help pilots better visualize weather data.  It is not intended as a substitute for an official pre-flight weather briefing.

02:11:17 UTC

KCPT METAR
Cleburne Regional Airport
Cleburne, Texas, USA
Current

16 mins ago

KCPT 180155Z AUTO 36009KT 10SM CLR 08/M00 A3006 RMK AO2
Observed
Feb-18 @ 01:55 UTC
Wind
  • 360° at 9 KTS
Visibility
10 SM
Flight Rules
VFR
Cloud Levels
  • Clear skies
Temperature
C / 46°F
Dewpoint
C / 32°F
Humidity
57%
Altimeter
30.06" Hg
Pressure
1017.92 hPa
Previous

36 mins ago

KCPT 180135Z AUTO 01009KT 10SM CLR 09/00 A3005 RMK AO2
Observed
Feb-18 @ 01:35 UTC
Wind
  • 010° at 9 KTS
Visibility
10 SM
Flight Rules
VFR
Cloud Levels
  • Clear skies
Temperature
C / 48°F
Dewpoint
C / 32°F
Humidity
54%
Altimeter
30.05" Hg
Pressure
1017.62 hPa
Previous

56 mins ago

KCPT 180115Z AUTO 36006KT 10SM CLR 09/00 A3005 RMK AO2
Observed
Feb-18 @ 01:15 UTC
Wind
  • 360° at 6 KTS
Visibility
10 SM
Flight Rules
VFR
Cloud Levels
  • Clear skies
Temperature
C / 48°F
Dewpoint
C / 32°F
Humidity
54%
Altimeter
30.05" Hg
Pressure
1017.62 hPa